createdAt,value
2023-01-23T00:01:31.750Z,12.37
2023-01-23T00:03:34.144Z,11.67
2023-01-23T00:05:35.868Z,11.80
2023-01-23T00:07:37.749Z,11.13
2023-01-23T00:09:39.924Z,11.97
2023-01-23T00:11:41.663Z,13.80
2023-01-23T00:13:43.989Z,14.57
2023-01-23T00:15:45.674Z,13.93
2023-01-23T00:17:48.393Z,13.20
2023-01-23T00:19:53.717Z,12.40
2023-01-23T00:21:55.521Z,12.53
2023-01-23T00:23:58.861Z,12.40
2023-01-23T00:26:08.816Z,12.00
2023-01-23T00:28:10.556Z,12.97
2023-01-23T00:30:13.714Z,14.50
2023-01-23T00:32:15.537Z,14.50
2023-01-23T00:34:17.310Z,13.20
2023-01-23T00:36:20.178Z,12.23
2023-01-23T00:38:22.147Z,12.70
2023-01-23T00:40:24.137Z,13.57
2023-01-23T00:42:25.767Z,13.23
2023-01-23T00:44:27.511Z,13.13
2023-01-23T00:46:29.400Z,13.73
2023-01-23T00:48:31.499Z,12.87
2023-01-23T00:50:33.205Z,13.17
2023-01-23T00:52:35.057Z,14.10
2023-01-23T00:54:38.367Z,13.27
2023-01-23T00:56:40.141Z,14.07
2023-01-23T00:58:43.523Z,13.40
2023-01-23T01:00:46.732Z,13.93
2023-01-23T01:02:48.635Z,15.07
2023-01-23T01:04:50.522Z,14.57
2023-01-23T01:06:52.223Z,14.40
2023-01-23T01:08:53.924Z,12.93
2023-01-23T01:10:55.973Z,14.17
2023-01-23T01:12:59.067Z,13.63
2023-01-23T01:15:00.734Z,14.57
2023-01-23T01:17:02.467Z,14.77
2023-01-23T01:19:05.235Z,14.73
2023-01-23T01:21:09.360Z,13.70
2023-01-23T01:23:11.707Z,15.00
2023-01-23T01:25:13.691Z,16.00
2023-01-23T01:27:15.421Z,15.87
2023-01-23T01:29:17.217Z,14.80
2023-01-23T01:31:19.250Z,15.70
2023-01-23T01:33:21.131Z,14.40
2023-01-23T01:35:24.180Z,15.50
2023-01-23T01:37:26.186Z,15.73
2023-01-23T01:39:27.910Z,15.17
2023-01-23T01:41:29.733Z,15.77
2023-01-23T01:43:32.014Z,15.20
2023-01-23T01:46:11.483Z,15.40
2023-01-23T01:48:14.353Z,13.87
2023-01-23T01:50:16.393Z,14.97
2023-01-23T01:52:20.359Z,15.10
2023-01-23T01:54:44.154Z,15.20
2023-01-23T01:56:55.563Z,15.13
2023-01-23T01:59:00.821Z,15.00
2023-01-23T02:01:02.679Z,15.17
2023-01-23T02:03:04.680Z,15.20
2023-01-23T02:05:11.575Z,15.07
2023-01-23T02:07:26.304Z,14.60
2023-01-23T02:09:28.261Z,14.70
2023-01-23T02:11:30.093Z,14.70
2023-01-23T02:13:36.154Z,15.30
2023-01-23T02:15:39.089Z,15.67
2023-01-23T02:17:41.173Z,15.23
2023-01-23T02:19:54.669Z,16.00
2023-01-23T02:22:06.843Z,16.40
2023-01-23T02:24:11.868Z,16.20
2023-01-23T02:26:17.962Z,16.43
2023-01-23T02:28:19.622Z,16.30
2023-01-23T02:30:21.886Z,16.13
2023-01-23T02:32:27.108Z,16.87
2023-01-23T02:34:29.806Z,15.83
2023-01-23T02:36:34.259Z,16.87
2023-01-23T02:38:58.085Z,16.40
2023-01-23T02:41:03.088Z,16.57
2023-01-23T02:43:08.852Z,16.47
2023-01-23T02:45:10.964Z,16.47
2023-01-23T02:47:13.110Z,15.57
2023-01-23T02:49:15.601Z,16.13
2023-01-23T02:51:17.829Z,17.10
2023-01-23T02:53:19.549Z,15.90
2023-01-23T02:55:22.364Z,16.27
2023-01-23T02:57:24.370Z,14.83
2023-01-23T02:59:44.776Z,15.00
2023-01-23T03:01:46.712Z,16.10
2023-01-23T03:03:51.437Z,15.97
2023-01-23T03:05:55.645Z,15.63
2023-01-23T03:07:58.192Z,15.80
2023-01-23T03:10:00.193Z,15.60
2023-01-23T03:12:02.931Z,16.63
2023-01-23T03:14:06.478Z,16.07
2023-01-23T03:16:09.634Z,16.83
2023-01-23T03:18:11.377Z,17.07
2023-01-23T03:20:13.198Z,15.03
2023-01-23T03:22:15.038Z,15.70
2023-01-23T03:24:17.886Z,15.30
2023-01-23T03:26:19.859Z,15.90
2023-01-23T03:28:54.019Z,16.10
2023-01-23T03:30:55.799Z,15.87
2023-01-23T03:32:57.499Z,16.27
2023-01-23T03:34:59.495Z,16.33
2023-01-23T03:37:01.560Z,15.97
2023-01-23T03:39:26.398Z,17.90
2023-01-23T03:41:28.765Z,16.17
2023-01-23T03:43:33.179Z,15.77
2023-01-23T03:45:34.880Z,16.27
2023-01-23T03:47:37.034Z,16.53
2023-01-23T03:49:38.806Z,16.97
2023-01-23T03:51:40.542Z,17.87
2023-01-23T03:53:42.351Z,16.37
2023-01-23T03:55:47.782Z,17.20
2023-01-23T03:57:49.437Z,16.90
2023-01-23T03:59:51.451Z,16.70
2023-01-23T04:01:53.089Z,17.00
2023-01-23T04:03:54.770Z,15.13
2023-01-23T04:05:58.582Z,18.17
2023-01-23T04:08:00.660Z,17.10
2023-01-23T04:10:02.559Z,21.10
2023-01-23T04:12:04.492Z,17.40
2023-01-23T04:14:06.448Z,17.07
2023-01-23T04:16:08.328Z,17.03
2023-01-23T04:18:10.070Z,14.87
2023-01-23T04:20:12.878Z,20.60
2023-01-23T04:22:14.744Z,19.57
2023-01-23T04:24:17.763Z,21.30
2023-01-23T04:26:19.454Z,17.80
2023-01-23T04:28:21.255Z,16.63
2023-01-23T04:30:23.153Z,17.93
2023-01-23T04:32:25.775Z,18.23
2023-01-23T04:34:27.660Z,18.87
2023-01-23T04:36:29.692Z,17.87
2023-01-23T04:38:32.255Z,15.83
2023-01-23T04:40:34.213Z,15.73
2023-01-23T04:42:36.073Z,17.20
2023-01-23T04:44:37.898Z,19.10
2023-01-23T04:46:39.567Z,20.67
2023-01-23T04:48:41.316Z,18.30
2023-01-23T04:50:43.057Z,22.93
2023-01-23T04:52:44.764Z,19.40
2023-01-23T04:54:46.583Z,19.73
2023-01-23T04:56:48.863Z,15.30
2023-01-23T04:58:50.645Z,17.43
2023-01-23T05:00:52.555Z,19.90
2023-01-23T05:02:54.417Z,20.20
2023-01-23T05:04:56.270Z,20.43
2023-01-23T05:06:58.259Z,20.93
2023-01-23T05:08:59.964Z,27.10
2023-01-23T05:11:01.608Z,17.63
2023-01-23T05:13:04.061Z,17.90
2023-01-23T05:15:07.174Z,18.47
2023-01-23T05:17:09.004Z,17.53
2023-01-23T05:19:11.501Z,16.70
2023-01-23T05:21:13.165Z,16.10
2023-01-23T05:23:15.027Z,16.07
2023-01-23T05:25:16.729Z,16.67
2023-01-23T05:27:18.436Z,15.10
2023-01-23T05:29:20.126Z,16.07
2023-01-23T05:31:22.080Z,16.00
2023-01-23T05:33:24.093Z,15.63
2023-01-23T05:35:25.997Z,16.87
2023-01-23T05:37:27.664Z,15.70
2023-01-23T05:39:32.570Z,16.00
2023-01-23T05:41:34.309Z,15.20
2023-01-23T05:43:36.094Z,15.77
2023-01-23T05:45:37.837Z,13.93
2023-01-23T05:47:40.142Z,15.17
2023-01-23T05:49:41.922Z,14.33
2023-01-23T05:51:43.716Z,16.10
2023-01-23T05:53:45.665Z,14.47
2023-01-23T05:55:47.428Z,14.23
2023-01-23T05:57:49.160Z,16.10
2023-01-23T05:59:50.900Z,13.47
2023-01-23T06:01:52.553Z,12.90
2023-01-23T06:03:54.415Z,14.40
2023-01-23T06:05:56.097Z,14.77
2023-01-23T06:07:58.001Z,14.73
2023-01-23T06:09:59.646Z,15.33
2023-01-23T06:12:01.659Z,15.80
2023-01-23T06:14:03.430Z,16.77
2023-01-23T06:16:05.567Z,15.30
2023-01-23T06:18:07.306Z,17.23
2023-01-23T06:20:09.872Z,20.77
2023-01-23T06:22:11.671Z,17.47
2023-01-23T06:24:13.486Z,14.93
2023-01-23T06:26:15.150Z,18.77
2023-01-23T06:28:16.948Z,18.67
2023-01-23T06:30:19.385Z,31.20
2023-01-23T06:32:23.523Z,27.00
2023-01-23T06:34:25.278Z,31.93
2023-01-23T06:36:27.325Z,31.10
2023-01-23T06:38:29.433Z,24.03
2023-01-23T06:40:31.173Z,27.43
2023-01-23T06:42:32.867Z,27.50
2023-01-23T06:44:34.711Z,22.90
2023-01-23T06:46:36.812Z,22.37
2023-01-23T06:48:39.262Z,20.13
2023-01-23T06:50:41.995Z,26.90
2023-01-23T06:52:43.810Z,22.93
2023-01-23T06:54:45.562Z,21.80
2023-01-23T06:56:49.291Z,21.43
2023-01-23T06:58:51.052Z,21.80
2023-01-23T07:00:52.966Z,21.80
2023-01-23T07:02:58.838Z,18.70
2023-01-23T07:05:00.549Z,21.40
2023-01-23T07:07:02.498Z,17.40
2023-01-23T07:09:04.467Z,17.23
2023-01-23T07:11:07.106Z,18.60
2023-01-23T07:13:10.618Z,17.10
2023-01-23T07:15:12.415Z,19.80
2023-01-23T07:17:14.120Z,16.27
2023-01-23T07:19:15.922Z,17.23
2023-01-23T07:21:17.607Z,18.57
2023-01-23T07:23:19.458Z,18.90
2023-01-23T07:25:22.390Z,17.30
2023-01-23T07:27:24.195Z,15.77
2023-01-23T07:29:26.276Z,18.10
2023-01-23T07:31:28.113Z,16.47
2023-01-23T07:33:29.858Z,16.00
2023-01-23T07:35:32.291Z,15.20
2023-01-23T07:37:34.182Z,15.07
2023-01-23T07:39:35.849Z,15.30
2023-01-23T07:41:38.148Z,15.60
2023-01-23T07:43:39.840Z,14.97
2023-01-23T07:45:41.622Z,13.97
2023-01-23T07:47:45.567Z,14.90
2023-01-23T07:49:47.450Z,16.53
2023-01-23T07:51:49.196Z,15.73
2023-01-23T07:53:50.882Z,16.20
2023-01-23T07:55:52.529Z,14.53
2023-01-23T07:57:54.187Z,13.80
2023-01-23T07:59:55.922Z,14.30
2023-01-23T08:01:57.770Z,14.97
2023-01-23T08:03:59.742Z,13.40
2023-01-23T08:06:01.461Z,12.93
2023-01-23T08:08:13.043Z,13.67
2023-01-23T08:10:15.960Z,13.33
2023-01-23T08:12:17.800Z,12.73
2023-01-23T08:14:20.198Z,13.43
2023-01-23T08:16:21.978Z,12.23
2023-01-23T08:18:23.802Z,12.80
2023-01-23T08:20:25.497Z,11.27
2023-01-23T08:22:27.267Z,11.30
2023-01-23T08:24:29.084Z,10.60
2023-01-23T08:26:31.046Z,10.97
2023-01-23T08:28:33.209Z,11.07
2023-01-23T08:30:35.012Z,11.03
2023-01-23T08:32:36.937Z,11.33
2023-01-23T08:34:38.606Z,11.50
2023-01-23T08:36:40.355Z,12.50
2023-01-23T08:38:42.030Z,12.10
2023-01-23T08:40:43.777Z,11.70
2023-01-23T08:42:45.555Z,11.00
2023-01-23T08:44:47.405Z,11.90
2023-01-23T08:46:49.031Z,11.60
2023-01-23T08:48:50.738Z,10.30
2023-01-23T08:50:58.935Z,10.60
2023-01-23T08:53:01.041Z,10.33
2023-01-23T08:55:03.245Z,10.20
2023-01-23T08:57:05.522Z,10.37
2023-01-23T08:59:07.446Z,9.80
2023-01-23T09:01:13.978Z,10.57
2023-01-23T09:03:16.020Z,9.23
2023-01-23T09:05:18.249Z,8.90
2023-01-23T09:07:19.910Z,9.20
2023-01-23T09:09:21.626Z,9.90
2023-01-23T09:11:24.405Z,9.40
2023-01-23T09:13:26.590Z,9.60
2023-01-23T09:15:28.629Z,9.80
2023-01-23T09:17:30.441Z,8.30
2023-01-23T09:19:32.743Z,8.90
2023-01-23T09:21:34.546Z,8.23
2023-01-23T09:23:36.740Z,8.67
2023-01-23T09:25:38.540Z,8.53
2023-01-23T09:27:40.566Z,7.97
2023-01-23T09:29:42.336Z,8.23
2023-01-23T09:31:44.212Z,9.20
2023-01-23T09:33:47.852Z,8.73
2023-01-23T09:35:52.151Z,8.67
2023-01-23T09:37:59.988Z,10.00
2023-01-23T09:40:01.680Z,9.97
2023-01-23T09:42:08.467Z,8.93
2023-01-23T09:44:25.238Z,9.80
2023-01-23T09:46:32.954Z,8.70
2023-01-23T09:48:44.601Z,10.63
2023-01-23T09:50:57.761Z,11.50
2023-01-23T09:53:08.599Z,10.10
2023-01-23T09:55:25.203Z,11.03
2023-01-23T09:57:34.964Z,10.40
2023-01-23T09:59:53.647Z,11.33
2023-01-23T10:01:59.890Z,10.13
2023-01-23T10:04:02.583Z,11.77
2023-01-23T10:06:24.488Z,10.90
2023-01-23T10:08:56.581Z,9.83
2023-01-23T10:11:06.825Z,10.63
2023-01-23T10:13:19.791Z,13.10
2023-01-23T10:15:24.445Z,11.13
2023-01-23T10:17:28.834Z,11.10
2023-01-23T10:19:58.285Z,10.20
2023-01-23T10:22:33.552Z,11.47
2023-01-23T10:24:48.752Z,10.77
2023-01-23T10:26:50.903Z,11.13
2023-01-23T10:28:58.436Z,11.97
2023-01-23T10:31:04.030Z,10.83
2023-01-23T10:33:15.584Z,11.17
2023-01-23T10:35:36.134Z,12.70
2023-01-23T10:37:50.920Z,11.80
2023-01-23T10:40:02.921Z,11.60
2023-01-23T10:42:11.735Z,11.40
2023-01-23T10:44:19.287Z,11.63
2023-01-23T10:46:27.740Z,13.13
2023-01-23T10:48:32.391Z,10.40
2023-01-23T10:50:39.591Z,11.00
2023-01-23T10:52:43.952Z,10.13
2023-01-23T10:54:47.016Z,9.73
2023-01-23T10:57:18.610Z,10.90
2023-01-23T10:59:28.453Z,9.80
2023-01-23T11:01:32.811Z,11.03
2023-01-23T11:03:39.720Z,9.20
2023-01-23T11:05:52.496Z,10.83
2023-01-23T11:07:55.877Z,10.20
2023-01-23T11:10:13.283Z,10.20
2023-01-23T11:12:21.434Z,11.50
2023-01-23T11:14:24.242Z,9.60
2023-01-23T11:16:25.957Z,10.93
2023-01-23T11:18:39.067Z,10.47
2023-01-23T11:20:52.782Z,12.03
2023-01-23T11:23:10.941Z,10.43
2023-01-23T11:25:37.726Z,9.10
2023-01-23T11:27:39.485Z,12.07
2023-01-23T11:30:03.164Z,11.77
2023-01-23T11:32:11.288Z,10.80
2023-01-23T11:34:16.056Z,11.07
2023-01-23T11:36:17.690Z,10.67
2023-01-23T11:38:30.849Z,10.00
2023-01-23T11:40:32.864Z,10.80
2023-01-23T11:42:39.315Z,9.90
2023-01-23T11:44:46.428Z,10.63
2023-01-23T11:47:36.506Z,10.63
2023-01-23T11:50:11.838Z,9.03
2023-01-23T11:52:42.721Z,10.80
2023-01-23T11:54:56.068Z,10.30
2023-01-23T11:57:20.650Z,11.13
2023-01-23T11:59:34.395Z,9.43
2023-01-23T12:02:03.197Z,9.80
2023-01-23T12:04:35.521Z,9.70
2023-01-23T12:06:49.391Z,10.10
2023-01-23T12:09:02.816Z,9.97
2023-01-23T12:11:13.676Z,10.57
2023-01-23T12:13:33.411Z,10.17
2023-01-23T12:15:50.927Z,10.20
2023-01-23T12:18:16.246Z,10.50
2023-01-23T12:20:42.103Z,10.30
2023-01-23T12:23:20.805Z,10.40
2023-01-23T12:25:33.148Z,9.60
2023-01-23T12:27:50.170Z,9.70
2023-01-23T12:30:33.923Z,9.67
2023-01-23T12:32:41.414Z,9.50
2023-01-23T12:35:01.747Z,9.97
2023-01-23T12:37:40.946Z,9.80
2023-01-23T12:40:02.125Z,9.00
2023-01-23T12:42:13.262Z,8.53
2023-01-23T12:44:17.081Z,8.17
2023-01-23T12:46:25.071Z,8.17
2023-01-23T12:48:40.590Z,7.73
2023-01-23T12:50:57.341Z,7.63
2023-01-23T12:53:06.847Z,7.63
2023-01-23T12:55:22.849Z,7.33
2023-01-23T13:00:27.514Z,8.73
2023-01-23T13:02:34.357Z,8.40
2023-01-23T13:05:09.236Z,8.70
2023-01-23T13:07:26.079Z,6.80
2023-01-23T13:10:06.417Z,8.53
2023-01-23T13:12:21.816Z,8.73
2023-01-23T13:14:43.502Z,8.00
2023-01-23T13:16:56.822Z,7.53
2023-01-23T13:19:19.756Z,8.03
2023-01-23T13:21:40.016Z,8.47
2023-01-23T13:23:41.946Z,7.80
2023-01-23T13:25:43.712Z,8.93
2023-01-23T13:27:58.398Z,8.20
2023-01-23T13:30:02.285Z,9.30
2023-01-23T13:32:22.137Z,9.40
2023-01-23T13:34:24.775Z,9.37
2023-01-23T13:36:35.776Z,8.70
2023-01-23T13:38:39.471Z,9.40
2023-01-23T13:41:01.181Z,8.97
2023-01-23T13:43:58.062Z,8.37
2023-01-23T13:45:59.865Z,10.23
2023-01-23T14:23:34.591Z,9.40
2023-01-23T14:25:38.161Z,9.30
2023-01-23T14:27:52.043Z,10.20
2023-01-23T14:30:02.946Z,9.20
2023-01-23T14:32:04.931Z,8.70
2023-01-23T14:34:17.907Z,9.90
2023-01-23T14:36:21.433Z,9.37
2023-01-23T14:38:29.555Z,9.20
2023-01-23T14:40:40.321Z,11.00
2023-01-23T14:43:16.795Z,10.83
2023-01-23T14:45:18.981Z,10.70
2023-01-23T14:47:34.321Z,9.60
2023-01-23T14:49:37.644Z,8.40
2023-01-23T14:51:39.550Z,10.30
2023-01-23T14:53:41.693Z,10.07
2023-01-23T14:55:49.945Z,10.80
2023-01-23T14:57:53.221Z,10.13
2023-01-23T14:59:56.947Z,10.30
2023-01-23T15:02:07.503Z,11.10
2023-01-23T15:04:23.543Z,10.60
2023-01-23T15:06:25.436Z,10.50
2023-01-23T15:08:32.423Z,10.00
2023-01-23T15:10:43.029Z,11.30
2023-01-23T15:12:59.706Z,12.57
2023-01-23T15:15:01.425Z,11.30
2023-01-23T15:17:07.205Z,12.57
2023-01-23T15:19:23.605Z,12.23
2023-01-23T15:21:35.746Z,11.87
2023-01-23T15:23:40.536Z,11.50
2023-01-23T15:25:42.488Z,12.27
2023-01-23T15:27:44.212Z,12.10
2023-01-23T15:29:45.903Z,13.10
2023-01-23T15:31:52.991Z,11.50
2023-01-23T15:33:56.303Z,12.30
2023-01-23T15:36:08.196Z,11.90
2023-01-23T15:38:16.459Z,12.90
2023-01-23T15:40:20.295Z,11.70
2023-01-23T15:42:27.449Z,12.33
2023-01-23T15:44:31.720Z,12.63
2023-01-23T15:46:33.546Z,12.00
2023-01-23T15:48:35.489Z,12.83
2023-01-23T15:50:37.591Z,13.27
2023-01-23T15:52:49.923Z,13.03
2023-01-23T15:54:58.157Z,12.87
2023-01-23T15:57:07.543Z,13.40
2023-01-23T15:59:18.257Z,13.10
2023-01-23T16:01:20.126Z,12.40
2023-01-23T16:03:21.909Z,13.80
2023-01-23T16:05:26.427Z,19.50
2023-01-23T16:07:34.663Z,15.40
2023-01-23T16:09:39.253Z,12.40
2023-01-23T16:11:41.209Z,13.30
2023-01-23T16:13:42.875Z,14.80
2023-01-23T16:15:44.835Z,13.00
2023-01-23T16:17:47.149Z,13.03
2023-01-23T16:19:50.559Z,13.73
2023-01-23T16:22:03.903Z,12.80
2023-01-23T16:24:07.131Z,13.80
2023-01-23T16:26:20.283Z,13.20
2023-01-23T16:28:24.146Z,13.77
2023-01-23T16:30:27.073Z,16.50
2023-01-23T16:32:28.982Z,13.97
2023-01-23T16:34:30.735Z,15.53
2023-01-23T16:36:32.643Z,13.43
2023-01-23T16:38:34.614Z,13.10
2023-01-23T16:40:36.371Z,13.83
2023-01-23T16:42:38.956Z,12.30
2023-01-23T16:44:40.708Z,12.90
2023-01-23T16:46:43.284Z,12.90
2023-01-23T16:48:45.114Z,14.13
2023-01-23T16:50:51.767Z,14.03
2023-01-23T16:52:59.272Z,14.97
2023-01-23T16:55:01.018Z,13.70
2023-01-23T16:57:03.106Z,13.40
2023-01-23T16:59:15.377Z,12.80
2023-01-23T17:01:22.899Z,13.40
2023-01-23T17:03:29.609Z,14.03
2023-01-23T17:05:31.302Z,14.27
2023-01-23T17:07:33.022Z,14.00
2023-01-23T17:09:34.998Z,13.50
2023-01-23T17:11:48.574Z,13.37
2023-01-23T17:13:58.889Z,15.40
2023-01-23T17:16:02.544Z,13.70
2023-01-23T17:18:04.491Z,13.73
2023-01-23T17:20:06.915Z,14.17
2023-01-23T17:22:28.056Z,14.03
2023-01-23T17:24:29.754Z,13.50
2023-01-23T17:26:31.398Z,14.30
2023-01-23T17:28:33.599Z,13.67
2023-01-23T17:30:35.573Z,14.00
2023-01-23T17:32:39.007Z,13.63
2023-01-23T17:34:48.796Z,14.33
2023-01-23T17:36:54.331Z,13.67
2023-01-23T17:38:58.353Z,13.50
2023-01-23T17:41:00.182Z,14.27
2023-01-23T17:43:02.047Z,13.13
2023-01-23T17:45:04.277Z,13.27
2023-01-23T17:47:06.619Z,14.50
2023-01-23T17:49:28.496Z,14.30
2023-01-23T17:51:33.590Z,13.30
2023-01-23T17:53:42.326Z,14.70
2023-01-23T17:55:48.971Z,13.20
2023-01-23T17:57:51.095Z,13.67
2023-01-23T17:59:55.550Z,13.57
2023-01-23T18:01:58.719Z,14.90
2023-01-23T18:04:00.364Z,13.97
2023-01-23T18:06:02.102Z,14.77
2023-01-23T18:08:03.945Z,13.23
2023-01-23T18:10:07.818Z,13.87
2023-01-23T18:12:23.172Z,13.00
2023-01-23T18:14:30.633Z,13.87
2023-01-23T18:16:42.619Z,13.77
2023-01-23T18:18:46.686Z,14.40
2023-01-23T18:20:54.491Z,16.00
2023-01-23T18:22:57.229Z,14.50
2023-01-23T18:24:59.237Z,14.60
2023-01-23T18:27:18.632Z,14.30
2023-01-23T18:30:00.241Z,13.70
2023-01-23T18:32:35.659Z,14.70
2023-01-23T18:34:52.865Z,14.73
2023-01-23T18:37:13.187Z,15.57
2023-01-23T18:39:51.648Z,13.93
2023-01-23T18:42:38.541Z,15.37
2023-01-23T18:44:47.635Z,12.43
2023-01-23T18:46:49.554Z,13.00
2023-01-23T18:48:51.580Z,13.40
2023-01-23T18:51:15.792Z,13.87
2023-01-23T18:53:41.201Z,13.90
2023-01-23T18:56:10.276Z,13.10
2023-01-23T18:58:46.754Z,14.50
2023-01-23T19:01:22.493Z,14.03
2023-01-23T19:03:35.578Z,14.90
2023-01-23T19:05:37.407Z,14.93
2023-01-23T19:07:39.795Z,17.60
2023-01-23T19:09:46.569Z,15.57
2023-01-23T19:12:24.033Z,17.60
2023-01-23T19:14:38.825Z,15.00
2023-01-23T19:16:53.886Z,15.90
2023-01-23T19:19:19.866Z,17.00
2023-01-23T19:21:26.682Z,14.47
2023-01-23T19:23:44.455Z,14.43
2023-01-23T19:25:48.046Z,15.63
2023-01-23T19:27:52.813Z,15.10
2023-01-23T19:29:54.639Z,15.87
2023-01-23T19:32:05.275Z,14.27
2023-01-23T19:34:07.724Z,13.27
2023-01-23T19:36:11.357Z,13.60
2023-01-23T19:38:15.091Z,13.10
2023-01-23T19:40:17.371Z,15.87
2023-01-23T19:42:19.323Z,13.10
2023-01-23T19:44:24.233Z,13.57
2023-01-23T19:46:31.711Z,13.47
2023-01-23T19:48:33.297Z,15.47
2023-01-23T19:50:35.401Z,13.97
2023-01-23T19:52:37.284Z,13.57
2023-01-23T19:54:39.119Z,14.30
2023-01-23T19:56:42.306Z,13.20
2023-01-23T19:58:44.953Z,12.80
2023-01-23T20:00:47.155Z,13.43
2023-01-23T20:02:49.802Z,13.90
2023-01-23T20:04:51.473Z,14.53
2023-01-23T20:06:53.423Z,14.20
2023-01-23T20:08:55.239Z,13.77
2023-01-23T20:10:56.963Z,16.33
2023-01-23T20:12:59.204Z,15.23
2023-01-23T20:15:00.865Z,14.50
2023-01-23T20:17:02.655Z,13.13
2023-01-23T20:19:04.387Z,13.20
2023-01-23T20:21:06.263Z,14.13
2023-01-23T20:23:08.021Z,14.37
2023-01-23T20:25:13.003Z,13.80
2023-01-23T20:27:14.728Z,14.83
2023-01-23T20:29:16.471Z,13.83
2023-01-23T20:31:18.283Z,15.20
2023-01-23T20:33:24.489Z,14.77
2023-01-23T20:35:26.739Z,12.60
2023-01-23T20:37:28.839Z,13.03
2023-01-23T20:39:30.872Z,13.53
2023-01-23T20:41:32.722Z,13.73
2023-01-23T20:43:34.778Z,14.50
2023-01-23T20:45:36.537Z,13.80
2023-01-23T20:47:38.737Z,14.00
2023-01-23T20:49:40.437Z,13.27
2023-01-23T20:51:42.632Z,14.67
2023-01-23T20:53:44.998Z,14.90
2023-01-23T20:55:52.983Z,15.03
2023-01-23T20:58:13.389Z,13.67
2023-01-23T21:00:15.801Z,13.43
2023-01-23T21:02:23.353Z,14.37
2023-01-23T21:04:31.062Z,14.10
2023-01-23T21:06:32.777Z,13.03
2023-01-23T21:08:34.782Z,14.40
2023-01-23T21:10:36.542Z,13.90
2023-01-23T21:12:38.251Z,16.40
2023-01-23T21:14:40.246Z,15.80
2023-01-23T21:16:42.268Z,16.90
2023-01-23T21:18:47.033Z,17.50
2023-01-23T21:20:48.917Z,17.90
2023-01-23T21:22:50.714Z,17.57
2023-01-23T21:24:52.356Z,17.93
2023-01-23T21:26:54.633Z,17.47
2023-01-23T21:28:57.767Z,15.23
2023-01-23T21:30:59.894Z,14.50
2023-01-23T21:33:01.687Z,16.80
2023-01-23T21:35:03.654Z,18.20
2023-01-23T21:37:07.321Z,15.10
2023-01-23T21:39:10.376Z,19.60
2023-01-23T21:41:12.623Z,16.00
2023-01-23T21:43:14.824Z,16.50
2023-01-23T21:45:16.608Z,14.67
2023-01-23T21:47:19.990Z,18.70
2023-01-23T21:49:21.887Z,16.27
2023-01-23T21:51:25.465Z,14.60
2023-01-23T21:53:27.335Z,17.20
2023-01-23T21:55:29.094Z,16.00
2023-01-23T21:57:30.784Z,20.53
2023-01-23T21:59:32.637Z,17.47
2023-01-23T22:01:42.516Z,15.67
2023-01-23T22:03:44.771Z,16.57
2023-01-23T22:05:46.744Z,15.60
2023-01-23T22:07:48.570Z,15.60
2023-01-23T22:09:50.271Z,17.80
2023-01-23T22:11:52.121Z,16.10
2023-01-23T22:13:54.249Z,17.20
2023-01-23T22:15:57.929Z,14.97
2023-01-23T22:17:59.662Z,15.80
2023-01-23T22:20:01.324Z,15.53
2023-01-23T22:22:03.045Z,17.53
2023-01-23T22:24:05.123Z,14.50
2023-01-23T22:26:09.277Z,15.00
2023-01-23T22:28:11.076Z,15.70
2023-01-23T22:30:13.102Z,14.23
2023-01-23T22:32:14.994Z,14.20
2023-01-23T22:34:16.935Z,17.17
2023-01-23T22:36:20.266Z,15.87
2023-01-23T22:38:22.047Z,15.70
2023-01-23T22:40:23.700Z,15.27
2023-01-23T22:42:25.454Z,17.33
2023-01-23T22:44:27.191Z,15.80
2023-01-23T22:46:29.122Z,15.77
2023-01-23T22:48:31.191Z,15.70
2023-01-23T22:50:33.038Z,15.63
2023-01-23T22:52:34.983Z,17.90
2023-01-23T22:54:36.686Z,15.30
2023-01-23T22:56:38.833Z,15.73
2023-01-23T22:58:44.383Z,17.00
2023-01-23T23:00:46.277Z,18.93
2023-01-23T23:02:48.169Z,16.80
2023-01-23T23:04:51.501Z,15.53
2023-01-23T23:06:53.190Z,16.50
2023-01-23T23:08:55.593Z,18.90
2023-01-23T23:11:25.574Z,16.03
2023-01-23T23:13:28.317Z,18.17
2023-01-23T23:15:29.984Z,16.13
2023-01-23T23:17:31.657Z,17.97
2023-01-23T23:19:33.467Z,16.93
2023-01-23T23:21:37.309Z,18.83
2023-01-23T23:23:39.269Z,17.97
2023-01-23T23:25:40.938Z,17.10
2023-01-23T23:27:42.637Z,21.67
2023-01-23T23:29:44.488Z,19.63
2023-01-23T23:31:47.256Z,16.20
2023-01-23T23:33:48.950Z,22.70
2023-01-23T23:35:50.620Z,19.30
2023-01-23T23:37:52.405Z,18.60
2023-01-23T23:39:54.157Z,17.83
2023-01-23T23:41:56.083Z,15.23
2023-01-23T23:43:57.801Z,19.47
2023-01-23T23:46:01.764Z,16.70
2023-01-23T23:48:03.721Z,15.73
2023-01-23T23:50:06.106Z,20.67
2023-01-23T23:52:07.759Z,17.00
2023-01-23T23:54:09.395Z,20.80
2023-01-23T23:56:21.928Z,18.93
2023-01-23T23:58:26.593Z,17.13
